Time;durP1;ratioP1;P1;durP2;ratioP2;P2;SDS_P1;SDS_P2;PMS_P1;PMS_P2;Temp;Humidity;BMP_temperature;BMP_pressure;BME280_temperature;BME280_humidity;BME280_pressure;Samples;Min_cycle;Max_cycle;Signal;HPM_P1;HPM_P2
2022/06/16 00:01:48;;;;;;;;;;;;;;;;;;5016651;28;19994;-21
2022/06/16 00:04:14;;;;;;;;;;;;;;;;;;5016366;28;20397;-22
2022/06/16 00:06:40;;;;;;;;;;;;;;;;;;5016318;28;19946;-22
2022/06/16 00:09:06;;;;;;;;;;;;;;;;;;5016617;28;19909;-21
2022/06/16 00:11:32;;;;;;;;;;;;;;;;;;5016271;28;19928;-22
2022/06/16 00:13:58;;;;;;;;;;;;;;;;;;5016129;28;20008;-21
2022/06/16 00:16:24;;;;;;;;;;;;;;;;;;5016170;28;19963;-22
2022/06/16 00:18:50;;;;;;;;;;;;;;;;;;5016180;28;19917;-22
2022/06/16 00:21:16;;;;;;;;;;;;;;;;;;5016657;28;19925;-21
2022/06/16 00:23:42;;;;;;;;;;;;;;;;;;5016215;28;19918;-23
2022/06/16 00:26:08;;;;;;;;;;;;;;;;;;5016106;28;20000;-21
2022/06/16 00:28:34;;;;;;;;;;;;;;;;;;5016256;28;19960;-22
2022/06/16 00:31:00;;;;;;;;;;;;;;;;;;5015973;28;19909;-21
2022/06/16 00:33:26;;;;;;;;;;;;;;;;;;5015813;28;19918;-22
2022/06/16 00:35:52;;;;;;;;;;;;;;;;;;5016140;28;20008;-22
2022/06/16 00:38:18;;;;;;;;;;;;;;;;;;5015908;28;19925;-21
2022/06/16 00:40:44;;;;;;;;;;;;;;;;;;5016102;28;19960;-24
2022/06/16 00:43:10;;;;;;;;;;;;;;;;;;5015673;28;19917;-21
2022/06/16 00:45:36;;;;;;;;;;;;;;;;;;5016314;28;19917;-22
2022/06/16 00:48:02;;;;;;;;;;;;;;;;;;5014773;28;19921;-22
2022/06/16 00:50:28;;;;;;;;;;;;;;;;;;5015642;28;19914;-22
2022/06/16 00:52:54;;;;;;;;;;;;;;;;;;5015777;28;20308;-23
2022/06/16 00:55:20;;;;;;;;;;;;;;;;;;5015910;28;19913;-21
2022/06/16 00:57:46;;;;;;;;;;;;;;;;;;5015577;28;20318;-22
2022/06/16 01:00:21;;;;;;;;;;;;;;;;;;5015459;28;19949;-22
2022/06/16 01:02:47;;;;;;;;;;;;;;;;;;5015699;28;19914;-22
2022/06/16 01:05:13;;;;;;;;;;;;;;;;;;5015511;28;20000;-21
2022/06/16 01:07:39;;;;;;;;;;;;;;;;;;5015263;28;20380;-26
2022/06/16 01:10:05;;;;;;;;;;;;;;;;;;5015418;28;19913;-22
2022/06/16 01:15:15;;;;;;;;;;;;;;;;;;5015444;28;19917;-21
2022/06/16 01:17:41;;;;;;;;;;;;;;;;;;5015355;28;19918;-22
2022/06/16 01:20:07;;;;;;;;;;;;;;;;;;5015917;28;19910;-24
2022/06/16 01:22:33;;;;;;;;;;;;;;;;;;5015283;28;19956;-22
2022/06/16 01:24:59;;;;;;;;;;;;;;;;;;5015862;28;19925;-22
2022/06/16 01:27:25;;;;;;;;;;;;;;;;;;5015279;28;20004;-22
2022/06/16 01:29:51;;;;;;;;;;;;;;;;;;5015792;28;20007;-22
2022/06/16 01:32:17;;;;;;;;;;;;;;;;;;5015406;28;19914;-21
2022/06/16 01:34:44;;;;;;;;;;;;;;;;;;5015811;28;20017;-21
2022/06/16 01:37:09;;;;;;;;;;;;;;;;;;5015394;28;19940;-22
2022/06/16 01:39:35;;;;;;;;;;;;;;;;;;5015179;28;19910;-21
2022/06/16 01:42:01;;;;;;;;;;;;;;;;;;5015349;28;19917;-22
2022/06/16 01:44:27;;;;;;;;;;;;;;;;;;5015588;28;19917;-22
2022/06/16 01:46:53;;;;;;;;;;;;;;;;;;5015097;28;20319;-21
2022/06/16 01:49:19;;;;;;;;;;;;;;;;;;5015604;28;19941;-21
2022/06/16 01:51:45;;;;;;;;;;;;;;;;;;5015328;28;20000;-21
2022/06/16 01:54:12;;;;;;;;;;;;;;;;;;5014933;28;20328;-23
2022/06/16 01:56:38;;;;;;;;;;;;;;;;;;5014960;28;20364;-22
2022/06/16 01:59:04;;;;;;;;;;;;;;;;;;5014932;28;20008;-22
2022/06/16 02:01:30;;;;;;;;;;;;;;;;;;5014957;28;19914;-22
2022/06/16 02:03:56;;;;;;;;;;;;;;;;;;5014789;28;20016;-22
2022/06/16 02:06:22;;;;;;;;;;;;;;;;;;5014850;28;20012;-24
2022/06/16 02:08:48;;;;;;;;;;;;;;;;;;5014850;28;19956;-22
2022/06/16 02:11:14;;;;;;;;;;;;;;;;;;5015401;28;19921;-21
2022/06/16 02:13:40;;;;;;;;;;;;;;;;;;5018400;28;19910;-21
2022/06/16 02:16:06;;;;;;;;;;;;;;;;;;5018480;28;20242;-22
2022/06/16 02:18:33;;;;;;;;;;;;;;;;;;5018641;28;20000;-22
2022/06/16 02:20:59;;;;;;;;;;;;;;;;;;5018683;28;20288;-21
2022/06/16 02:23:25;;;;;;;;;;;;;;;;;;5018173;28;20016;-21
2022/06/16 02:25:51;;;;;;;;;;;;;;;;;;5018265;28;19984;-22
2022/06/16 02:28:17;;;;;;;;;;;;;;;;;;5018818;28;19914;-22
2022/06/16 02:30:43;;;;;;;;;;;;;;;;;;5018526;28;19936;-22
2022/06/16 02:33:09;;;;;;;;;;;;;;;;;;5018089;28;19922;-22
2022/06/16 02:35:35;;;;;;;;;;;;;;;;;;5018695;28;19910;-21
2022/06/16 02:38:01;;;;;;;;;;;;;;;;;;5018334;28;20442;-24
2022/06/16 02:40:27;;;;;;;;;;;;;;;;;;5018346;28;19968;-22
2022/06/16 02:42:53;;;;;;;;;;;;;;;;;;5018076;28;19913;-24
2022/06/16 02:45:19;;;;;;;;;;;;;;;;;;5018530;28;19909;-22
2022/06/16 02:47:46;;;;;;;;;;;;;;;;;;5018158;28;19924;-21
2022/06/16 02:50:12;;;;;;;;;;;;;;;;;;5018133;28;20257;-21
2022/06/16 02:52:38;;;;;;;;;;;;;;;;;;5017714;28;19924;-22
2022/06/16 02:55:05;;;;;;;;;;;;;;;;;;5018061;28;19919;-21
2022/06/16 02:57:31;;;;;;;;;;;;;;;;;;5017956;28;19922;-21
2022/06/16 02:59:57;;;;;;;;;;;;;;;;;;5017906;28;20013;-23
2022/06/16 03:02:24;;;;;;;;;;;;;;;;;;5017564;28;19924;-22
2022/06/16 03:04:50;;;;;;;;;;;;;;;;;;5017832;28;19923;-21
2022/06/16 03:07:16;;;;;;;;;;;;;;;;;;5017419;28;19921;-21
2022/06/16 03:09:42;;;;;;;;;;;;;;;;;;5017499;28;19924;-21
2022/06/16 03:12:08;;;;;;;;;;;;;;;;;;5017439;28;20059;-23
2022/06/16 03:14:34;;;;;;;;;;;;;;;;;;5016450;28;19913;-24
2022/06/16 03:17:01;;;;;;;;;;;;;;;;;;5017353;28;19909;-22
2022/06/16 03:19:27;;;;;;;;;;;;;;;;;;5017278;28;19913;-22
2022/06/16 03:21:54;;;;;;;;;;;;;;;;;;5017150;28;19917;-21
2022/06/16 03:24:20;;;;;;;;;;;;;;;;;;5016318;28;19917;-22
2022/06/16 03:26:46;;;;;;;;;;;;;;;;;;5017417;28;19971;-23
2022/06/16 03:29:12;;;;;;;;;;;;;;;;;;5017178;28;19941;-22
2022/06/16 03:31:38;;;;;;;;;;;;;;;;;;5017057;28;19913;-22
2022/06/16 03:34:04;;;;;;;;;;;;;;;;;;5017213;28;19964;-23
2022/06/16 03:36:30;;;;;;;;;;;;;;;;;;5016962;28;19913;-22
2022/06/16 03:38:56;;;;;;;;;;;;;;;;;;5017149;28;19921;-22
2022/06/16 03:41:22;;;;;;;;;;;;;;;;;;5016901;28;19936;-22
2022/06/16 03:43:48;;;;;;;;;;;;;;;;;;5016695;28;19914;-23
2022/06/16 03:46:16;;;;;;;;;;;;;;;;;;5016755;28;19913;-22
2022/06/16 03:48:42;;;;;;;;;;;;;;;;;;5016934;28;19914;-21
2022/06/16 03:51:09;;;;;;;;;;;;;;;;;;5015724;28;19996;-22
2022/06/16 03:53:35;;;;;;;;;;;;;;;;;;5016848;28;19913;-21
2022/06/16 03:56:01;;;;;;;;;;;;;;;;;;5016531;28;19920;-21
2022/06/16 03:58:26;;;;;;;;;;;;;;;;;;5016457;28;19914;-22
2022/06/16 04:00:52;;;;;;;;;;;;;;;;;;5016403;28;19968;-21
2022/06/16 04:06:03;;;;;;;;;;;;;;;;;;5016139;28;19928;-22
2022/06/16 04:08:29;;;;;;;;;;;;;;;;;;5016810;28;20333;-22
2022/06/16 04:10:55;;;;;;;;;;;;;;;;;;5016201;28;19914;-21
2022/06/16 04:13:21;;;;;;;;;;;;;;;;;;5015852;28;19967;-22
2022/06/16 04:15:47;;;;;;;;;;;;;;;;;;5016270;28;19913;-21
2022/06/16 04:18:13;;;;;;;;;;;;;;;;;;5016591;28;19913;-22
2022/06/16 04:20:39;;;;;;;;;;;;;;;;;;5015980;28;20303;-22
2022/06/16 04:23:10;;;;;;;;;;;;;;;;;;5015913;28;20029;-21
2022/06/16 04:25:36;;;;;;;;;;;;;;;;;;5014975;28;20253;-21
2022/06/16 04:28:02;;;;;;;;;;;;;;;;;;5016057;28;19917;-22
2022/06/16 04:30:28;;;;;;;;;;;;;;;;;;5015837;28;19971;-25
2022/06/16 04:32:54;;;;;;;;;;;;;;;;;;5015672;28;20000;-22
2022/06/16 04:35:20;;;;;;;;;;;;;;;;;;5014754;28;20408;-22
2022/06/16 04:37:46;;;;;;;;;;;;;;;;;;5016196;28;19953;-23
2022/06/16 04:40:12;;;;;;;;;;;;;;;;;;5014605;28;19928;-24
2022/06/16 04:42:38;;;;;;;;;;;;;;;;;;5015442;28;19914;-22
2022/06/16 04:45:04;;;;;;;;;;;;;;;;;;5015543;28;19919;-21
2022/06/16 04:47:30;;;;;;;;;;;;;;;;;;5015455;28;19913;-21
2022/06/16 04:49:56;;;;;;;;;;;;;;;;;;5015799;28;19968;-22
2022/06/16 04:52:22;;;;;;;;;;;;;;;;;;5015698;28;20249;-21
2022/06/16 04:54:48;;;;;;;;;;;;;;;;;;5016076;28;19971;-22
2022/06/16 04:57:14;;;;;;;;;;;;;;;;;;5015430;28;19917;-21
2022/06/16 04:59:40;;;;;;;;;;;;;;;;;;5015538;28;20359;-21
2022/06/16 05:02:06;;;;;;;;;;;;;;;;;;5015410;28;19984;-21
2022/06/16 05:04:33;;;;;;;;;;;;;;;;;;5015875;28;19928;-22
2022/06/16 05:06:59;;;;;;;;;;;;;;;;;;5014981;28;20369;-21
2022/06/16 05:09:25;;;;;;;;;;;;;;;;;;5015336;28;20004;-21
2022/06/16 05:11:51;;;;;;;;;;;;;;;;;;5015415;28;20367;-21
2022/06/16 05:14:17;;;;;;;;;;;;;;;;;;5014291;28;19920;-22
2022/06/16 05:16:43;;;;;;;;;;;;;;;;;;5015035;28;19918;-24
2022/06/16 05:19:09;;;;;;;;;;;;;;;;;;5015545;28;19913;-23
2022/06/16 05:21:35;;;;;;;;;;;;;;;;;;5015109;28;19909;-22
2022/06/16 05:24:01;;;;;;;;;;;;;;;;;;5015019;28;19917;-22
2022/06/16 05:26:28;;;;;;;;;;;;;;;;;;5015196;28;19914;-22
2022/06/16 05:28:54;;;;;;;;;;;;;;;;;;5014123;28;19952;-22
2022/06/16 05:31:20;;;;;;;;;;;;;;;;;;5015111;28;19956;-21
2022/06/16 05:33:46;;;;;;;;;;;;;;;;;;5014014;28;19921;-22
2022/06/16 05:36:12;;;;;;;;;;;;;;;;;;5014149;28;19917;-22
2022/06/16 05:38:38;;;;;;;;;;;;;;;;;;5014048;28;20333;-23
2022/06/16 05:41:06;;;;;;;;;;;;;;;;;;5015378;28;20292;-21
2022/06/16 05:43:32;;;;;;;;;;;;;;;;;;5015075;28;19928;-22
2022/06/16 05:45:59;;;;;;;;;;;;;;;;;;5015088;28;19910;-22
2022/06/16 05:48:25;;;;;;;;;;;;;;;;;;5018702;28;19913;-22
2022/06/16 05:50:51;;;;;;;;;;;;;;;;;;5018015;28;20028;-22
2022/06/16 05:53:17;;;;;;;;;;;;;;;;;;5018765;28;20368;-22
2022/06/16 05:55:43;;;;;;;;;;;;;;;;;;5018674;28;19910;-22
2022/06/16 05:58:09;;;;;;;;;;;;;;;;;;5018686;28;19918;-21
2022/06/16 06:03:17;;;;;;;;;;;;;;;;;;5371114;23;19926;-27
2022/06/16 06:05:43;;;;;;;;;;;;;;;;;;5018408;28;19914;-27
2022/06/16 06:16:28;;;;;;;;;;;;;;;;;;5018474;28;19975;-27
2022/06/16 06:18:54;;;;;;;;;;;;;;;;;;5018614;28;20294;-27
2022/06/16 06:21:57;;;;;;;;;;;;;;;;;;5018573;28;19909;-27
2022/06/16 06:24:06;;;;;;;;;;;;;;;;;;5018074;28;19921;-27
2022/06/16 06:26:32;;;;;;;;;;;;;;;;;;5018210;28;20374;-27
2022/06/16 06:28:58;;;;;;;;;;;;;;;;;;5018113;28;19914;-27
2022/06/16 06:31:24;;;;;;;;;;;;;;;;;;5018662;28;19921;-27
2022/06/16 06:33:50;;;;;;;;;;;;;;;;;;5018193;28;19909;-27
2022/06/16 06:36:16;;;;;;;;;;;;;;;;;;5018357;28;19914;-27
2022/06/16 06:38:42;;;;;;;;;;;;;;;;;;5018091;28;20336;-28
2022/06/16 06:41:08;;;;;;;;;;;;;;;;;;5018517;28;19977;-27
2022/06/16 06:43:34;;;;;;;;;;;;;;;;;;5017713;28;19918;-27
2022/06/16 06:46:00;;;;;;;;;;;;;;;;;;5018201;28;19914;-27
2022/06/16 06:48:26;;;;;;;;;;;;;;;;;;5017868;28;20327;-27
2022/06/16 06:50:52;;;;;;;;;;;;;;;;;;5017843;28;20004;-27
2022/06/16 06:53:18;;;;;;;;;;;;;;;;;;5018189;28;20342;-27
2022/06/16 06:55:44;;;;;;;;;;;;;;;;;;5017651;28;19933;-27
2022/06/16 06:58:10;;;;;;;;;;;;;;;;;;5016807;28;19931;-27
2022/06/16 07:00:36;;;;;;;;;;;;;;;;;;5017938;28;20328;-27
2022/06/16 07:03:02;;;;;;;;;;;;;;;;;;5017170;28;19918;-26
2022/06/16 07:05:28;;;;;;;;;;;;;;;;;;5017454;28;19948;-27
2022/06/16 07:07:58;;;;;;;;;;;;;;;;;;5017365;28;19914;-26
2022/06/16 07:10:24;;;;;;;;;;;;;;;;;;5017299;28;19941;-26
2022/06/16 07:12:51;;;;;;;;;;;;;;;;;;5017369;28;19918;-27
2022/06/16 07:15:17;;;;;;;;;;;;;;;;;;5017280;28;19920;-27
2022/06/16 07:17:43;;;;;;;;;;;;;;;;;;5017212;28;19914;-27
2022/06/16 07:20:09;;;;;;;;;;;;;;;;;;5017182;28;20396;-27
2022/06/16 07:22:35;;;;;;;;;;;;;;;;;;5017089;28;20000;-26
2022/06/16 07:25:01;;;;;;;;;;;;;;;;;;5017421;28;20015;-27
2022/06/16 07:27:27;;;;;;;;;;;;;;;;;;5016874;28;19913;-27
2022/06/16 07:29:54;;;;;;;;;;;;;;;;;;5017123;28;19920;-26
2022/06/16 07:32:20;;;;;;;;;;;;;;;;;;5017107;28;19914;-27
2022/06/16 07:34:46;;;;;;;;;;;;;;;;;;5016939;28;19917;-27
2022/06/16 07:37:12;;;;;;;;;;;;;;;;;;5017141;28;20307;-27
2022/06/16 07:39:38;;;;;;;;;;;;;;;;;;5017060;28;20344;-26
2022/06/16 07:42:04;;;;;;;;;;;;;;;;;;5016673;28;19921;-27
2022/06/16 07:44:30;;;;;;;;;;;;;;;;;;5017170;28;20355;-27
2022/06/16 07:46:56;;;;;;;;;;;;;;;;;;5016725;28;19909;-27
2022/06/16 07:49:22;;;;;;;;;;;;;;;;;;5017156;28;19920;-27
2022/06/16 07:51:48;;;;;;;;;;;;;;;;;;5016284;28;19913;-27
2022/06/16 07:54:14;;;;;;;;;;;;;;;;;;5016473;28;20259;-27
2022/06/16 07:56:40;;;;;;;;;;;;;;;;;;5016223;28;19917;-27
2022/06/16 07:59:07;;;;;;;;;;;;;;;;;;5016305;28;19968;-27
2022/06/16 08:01:33;;;;;;;;;;;;;;;;;;5016173;28;19913;-27
2022/06/16 08:04:05;;;;;;;;;;;;;;;;;;5015792;28;19932;-27
2022/06/16 08:06:31;;;;;;;;;;;;;;;;;;5016022;28;19917;-27
2022/06/16 08:08:57;;;;;;;;;;;;;;;;;;5016461;28;19921;-27
2022/06/16 08:14:07;;;;;;;;;;;;;;;;;;5016003;28;20016;-27
2022/06/16 08:16:33;;;;;;;;;;;;;;;;;;5015844;28;19921;-27
2022/06/16 08:18:59;;;;;;;;;;;;;;;;;;5015746;28;19909;-27
2022/06/16 08:21:26;;;;;;;;;;;;;;;;;;5016026;28;19975;-27
2022/06/16 08:23:52;;;;;;;;;;;;;;;;;;5015643;28;19975;-27
2022/06/16 08:26:19;;;;;;;;;;;;;;;;;;5015666;28;19909;-27
2022/06/16 08:28:45;;;;;;;;;;;;;;;;;;5016337;28;19948;-27
2022/06/16 08:31:11;;;;;;;;;;;;;;;;;;5015793;28;19917;-27
2022/06/16 08:33:37;;;;;;;;;;;;;;;;;;5015668;28;20296;-26
2022/06/16 08:36:03;;;;;;;;;;;;;;;;;;5015459;28;19936;-26
2022/06/16 08:38:29;;;;;;;;;;;;;;;;;;5014589;28;19910;-26
2022/06/16 08:41:11;;;;;;;;;;;;;;;;;;5015233;28;19914;-26
2022/06/16 08:43:37;;;;;;;;;;;;;;;;;;5015206;28;19913;-27
2022/06/16 08:46:03;;;;;;;;;;;;;;;;;;5015878;28;19920;-27
2022/06/16 08:48:29;;;;;;;;;;;;;;;;;;5015457;28;19910;-27
2022/06/16 08:50:56;;;;;;;;;;;;;;;;;;5015507;28;20260;-27
2022/06/16 08:53:22;;;;;;;;;;;;;;;;;;5015086;28;19913;-27
2022/06/16 08:55:48;;;;;;;;;;;;;;;;;;5015153;28;19973;-27
2022/06/16 08:58:14;;;;;;;;;;;;;;;;;;5015148;28;19965;-27
2022/06/16 09:00:40;;;;;;;;;;;;;;;;;;5015277;28;19913;-27
2022/06/16 09:03:07;;;;;;;;;;;;;;;;;;5013785;28;19918;-28
2022/06/16 09:05:35;;;;;;;;;;;;;;;;;;5015260;28;20293;-27
2022/06/16 09:08:01;;;;;;;;;;;;;;;;;;5015028;28;19913;-28
2022/06/16 09:10:27;;;;;;;;;;;;;;;;;;5015586;28;19916;-27
2022/06/16 09:12:53;;;;;;;;;;;;;;;;;;5015126;28;19913;-25
2022/06/16 09:15:22;;;;;;;;;;;;;;;;;;5015043;28;19971;-26
2022/06/16 09:17:48;;;;;;;;;;;;;;;;;;5014757;28;19913;-26
2022/06/16 09:20:15;;;;;;;;;;;;;;;;;;5015479;28;19910;-26
2022/06/16 09:22:41;;;;;;;;;;;;;;;;;;5013972;28;19917;-26
2022/06/16 09:25:08;;;;;;;;;;;;;;;;;;5015204;28;20228;-26
2022/06/16 09:27:34;;;;;;;;;;;;;;;;;;5014758;28;19913;-26
2022/06/16 09:30:00;;;;;;;;;;;;;;;;;;5015186;28;19980;-26
2022/06/16 09:32:27;;;;;;;;;;;;;;;;;;5014555;28;19921;-26
2022/06/16 09:34:54;;;;;;;;;;;;;;;;;;5014581;28;19917;-27
2022/06/16 09:37:21;;;;;;;;;;;;;;;;;;5014517;28;19929;-27
2022/06/16 09:39:47;;;;;;;;;;;;;;;;;;5014700;28;19916;-27
2022/06/16 09:44:57;;;;;;;;;;;;;;;;;;5014826;28;19920;-27
2022/06/16 09:47:25;;;;;;;;;;;;;;;;;;5015004;28;19918;-27
2022/06/16 09:49:51;;;;;;;;;;;;;;;;;;5014078;28;19923;-27
2022/06/16 09:52:17;;;;;;;;;;;;;;;;;;5015126;28;20252;-27
2022/06/16 09:54:43;;;;;;;;;;;;;;;;;;5015010;28;19949;-27
2022/06/16 09:57:09;;;;;;;;;;;;;;;;;;5014882;28;19913;-27
2022/06/16 09:59:35;;;;;;;;;;;;;;;;;;5014844;28;19920;-25
2022/06/16 10:02:01;;;;;;;;;;;;;;;;;;5014617;28;19910;-25
2022/06/16 10:04:27;;;;;;;;;;;;;;;;;;5014745;28;19976;-25
2022/06/16 10:06:53;;;;;;;;;;;;;;;;;;5015324;28;20327;-28
2022/06/16 10:09:19;;;;;;;;;;;;;;;;;;5014864;28;19971;-26
2022/06/16 10:11:45;;;;;;;;;;;;;;;;;;5015050;28;20000;-26
2022/06/16 10:14:12;;;;;;;;;;;;;;;;;;5014698;28;20327;-26
2022/06/16 10:16:38;;;;;;;;;;;;;;;;;;5015194;28;19925;-25
2022/06/16 10:19:06;;;;;;;;;;;;;;;;;;5015073;28;19909;-25
2022/06/16 10:21:32;;;;;;;;;;;;;;;;;;5014637;28;19909;-26
2022/06/16 10:23:58;;;;;;;;;;;;;;;;;;5014566;28;20012;-26
2022/06/16 10:26:34;;;;;;;;;;;;;;;;;;5015182;28;19921;-26
2022/06/16 10:29:09;;;;;;;;;;;;;;;;;;5013854;28;19987;-26
2022/06/16 10:31:36;;;;;;;;;;;;;;;;;;5009899;28;20364;-25
2022/06/16 10:34:02;;;;;;;;;;;;;;;;;;5016976;28;19936;-26
2022/06/16 10:36:28;;;;;;;;;;;;;;;;;;5018263;28;19913;-26
2022/06/16 10:38:54;;;;;;;;;;;;;;;;;;5018529;28;19941;-26
2022/06/16 10:41:20;;;;;;;;;;;;;;;;;;5017908;28;19918;-26
2022/06/16 10:43:46;;;;;;;;;;;;;;;;;;5017702;28;20004;-26
2022/06/16 10:46:12;;;;;;;;;;;;;;;;;;5018374;28;19924;-26
2022/06/16 10:48:39;;;;;;;;;;;;;;;;;;5017438;28;19910;-26
2022/06/16 10:51:05;;;;;;;;;;;;;;;;;;5018163;28;19921;-26
2022/06/16 10:53:31;;;;;;;;;;;;;;;;;;5017409;28;19913;-26
2022/06/16 10:55:57;;;;;;;;;;;;;;;;;;5017430;28;19914;-27
2022/06/16 10:58:23;;;;;;;;;;;;;;;;;;5017710;28;20387;-26
2022/06/16 11:00:49;;;;;;;;;;;;;;;;;;5017652;28;19953;-26
2022/06/16 11:03:15;;;;;;;;;;;;;;;;;;5017243;28;19972;-26
2022/06/16 11:05:41;;;;;;;;;;;;;;;;;;5017550;28;19931;-26
2022/06/16 11:08:07;;;;;;;;;;;;;;;;;;5017111;28;20008;-26
2022/06/16 11:10:33;;;;;;;;;;;;;;;;;;5017476;28;20064;-26
2022/06/16 11:12:59;;;;;;;;;;;;;;;;;;5017326;28;20004;-26
2022/06/16 11:15:25;;;;;;;;;;;;;;;;;;5017462;28;20372;-26
2022/06/16 11:17:51;;;;;;;;;;;;;;;;;;5017017;28;19920;-26
2022/06/16 11:20:17;;;;;;;;;;;;;;;;;;5017414;28;19909;-26
2022/06/16 11:22:43;;;;;;;;;;;;;;;;;;5017135;28;19917;-26
2022/06/16 11:25:09;;;;;;;;;;;;;;;;;;5017021;28;20108;-26
2022/06/16 11:27:35;;;;;;;;;;;;;;;;;;5017220;28;20398;-26
2022/06/16 11:30:01;;;;;;;;;;;;;;;;;;5016896;28;19976;-26
2022/06/16 11:32:28;;;;;;;;;;;;;;;;;;5017057;28;20239;-26
2022/06/16 11:34:54;;;;;;;;;;;;;;;;;;5017281;28;20238;-26
2022/06/16 11:37:20;;;;;;;;;;;;;;;;;;5017025;28;19950;-26
2022/06/16 11:39:46;;;;;;;;;;;;;;;;;;5016765;28;20366;-26
2022/06/16 11:42:12;;;;;;;;;;;;;;;;;;5016547;28;20414;-26
2022/06/16 11:44:38;;;;;;;;;;;;;;;;;;5016438;28;19917;-26
2022/06/16 11:47:04;;;;;;;;;;;;;;;;;;5016496;28;19913;-26
2022/06/16 11:49:30;;;;;;;;;;;;;;;;;;5016519;28;19983;-26
2022/06/16 11:51:56;;;;;;;;;;;;;;;;;;5016600;28;19921;-26
2022/06/16 11:54:22;;;;;;;;;;;;;;;;;;5016688;28;19909;-26
2022/06/16 11:56:48;;;;;;;;;;;;;;;;;;5016513;28;19920;-26
2022/06/16 11:59:16;;;;;;;;;;;;;;;;;;5016705;28;19909;-26
2022/06/16 12:01:42;;;;;;;;;;;;;;;;;;5016126;28;19917;-26
2022/06/16 12:04:08;;;;;;;;;;;;;;;;;;5015821;28;19947;-26
2022/06/16 12:06:34;;;;;;;;;;;;;;;;;;5016287;28;19913;-26
2022/06/16 12:09:00;;;;;;;;;;;;;;;;;;5016260;28;19918;-26
2022/06/16 12:11:26;;;;;;;;;;;;;;;;;;5016223;28;19913;-26
2022/06/16 12:13:52;;;;;;;;;;;;;;;;;;5016075;28;20013;-26
2022/06/16 12:16:20;;;;;;;;;;;;;;;;;;5016562;28;19924;-26
2022/06/16 12:18:46;;;;;;;;;;;;;;;;;;5015882;28;19910;-26
2022/06/16 12:21:13;;;;;;;;;;;;;;;;;;5016450;28;19971;-26
2022/06/16 12:23:39;;;;;;;;;;;;;;;;;;5015749;28;19913;-26
2022/06/16 12:26:05;;;;;;;;;;;;;;;;;;5016110;28;19914;-26
2022/06/16 12:28:31;;;;;;;;;;;;;;;;;;5015841;28;20383;-27
2022/06/16 12:30:57;;;;;;;;;;;;;;;;;;5015836;28;19914;-26
2022/06/16 12:33:23;;;;;;;;;;;;;;;;;;5016218;28;19913;-26
2022/06/16 12:35:49;;;;;;;;;;;;;;;;;;5016149;28;20249;-26
2022/06/16 12:38:15;;;;;;;;;;;;;;;;;;5016130;28;19913;-26
2022/06/16 12:40:41;;;;;;;;;;;;;;;;;;5015718;28;20311;-26
2022/06/16 12:43:07;;;;;;;;;;;;;;;;;;5015473;28;19917;-26
2022/06/16 12:45:33;;;;;;;;;;;;;;;;;;5015624;28;19909;-25
2022/06/16 12:47:59;;;;;;;;;;;;;;;;;;5015986;28;20276;-26
2022/06/16 12:50:25;;;;;;;;;;;;;;;;;;5015491;28;19963;-26
2022/06/16 12:52:51;;;;;;;;;;;;;;;;;;5015243;28;19940;-26
2022/06/16 12:55:17;;;;;;;;;;;;;;;;;;5015391;28;20287;-26
2022/06/16 12:57:43;;;;;;;;;;;;;;;;;;5014374;28;19981;-26
2022/06/16 13:00:10;;;;;;;;;;;;;;;;;;5015373;28;19909;-26
2022/06/16 13:02:36;;;;;;;;;;;;;;;;;;5014910;28;19917;-26
2022/06/16 13:05:08;;;;;;;;;;;;;;;;;;5015761;28;19917;-27
2022/06/16 13:07:34;;;;;;;;;;;;;;;;;;5015887;28;19924;-27
2022/06/16 13:10:00;;;;;;;;;;;;;;;;;;5015829;28;19913;-27
2022/06/16 13:12:26;;;;;;;;;;;;;;;;;;5015332;28;19975;-27
2022/06/16 13:14:52;;;;;;;;;;;;;;;;;;5015150;28;19909;-27
2022/06/16 13:17:18;;;;;;;;;;;;;;;;;;5015160;28;19913;-27
2022/06/16 13:19:44;;;;;;;;;;;;;;;;;;5015486;28;19910;-27
2022/06/16 13:22:10;;;;;;;;;;;;;;;;;;5015251;28;19924;-27
2022/06/16 13:24:36;;;;;;;;;;;;;;;;;;5015037;28;19913;-27
2022/06/16 13:27:04;;;;;;;;;;;;;;;;;;5015110;28;20279;-27
2022/06/16 13:29:30;;;;;;;;;;;;;;;;;;5014147;28;19910;-27
2022/06/16 13:31:56;;;;;;;;;;;;;;;;;;5014925;28;19924;-27
2022/06/16 13:34:23;;;;;;;;;;;;;;;;;;5015617;28;19913;-27
2022/06/16 13:36:49;;;;;;;;;;;;;;;;;;5015753;28;19925;-27
2022/06/16 13:39:15;;;;;;;;;;;;;;;;;;5014957;28;19921;-27
2022/06/16 13:41:41;;;;;;;;;;;;;;;;;;5014855;28;19948;-27
2022/06/16 13:44:07;;;;;;;;;;;;;;;;;;5014930;28;19917;-27
2022/06/16 13:46:33;;;;;;;;;;;;;;;;;;5014924;28;19940;-27
2022/06/16 13:48:59;;;;;;;;;;;;;;;;;;5015218;28;19909;-27
2022/06/16 13:51:25;;;;;;;;;;;;;;;;;;5014926;28;19952;-27
2022/06/16 13:53:51;;;;;;;;;;;;;;;;;;5014860;28;19913;-27
2022/06/16 13:56:17;;;;;;;;;;;;;;;;;;5015130;28;20281;-27
2022/06/16 13:58:43;;;;;;;;;;;;;;;;;;5014886;28;19945;-27
2022/06/16 14:01:09;;;;;;;;;;;;;;;;;;5014912;28;19909;-27
2022/06/16 14:03:35;;;;;;;;;;;;;;;;;;5014445;28;19929;-27
2022/06/16 14:06:01;;;;;;;;;;;;;;;;;;5015115;28;20344;-27
2022/06/16 14:08:27;;;;;;;;;;;;;;;;;;5016834;28;19914;-27
2022/06/16 14:10:53;;;;;;;;;;;;;;;;;;5018524;28;20285;-27
2022/06/16 14:13:20;;;;;;;;;;;;;;;;;;5018677;28;20296;-27
2022/06/16 14:15:46;;;;;;;;;;;;;;;;;;5018504;28;20337;-27
2022/06/16 14:18:13;;;;;;;;;;;;;;;;;;5018865;28;19948;-27
2022/06/16 14:20:39;;;;;;;;;;;;;;;;;;5018272;28;19920;-27
2022/06/16 14:23:05;;;;;;;;;;;;;;;;;;5018311;28;19937;-27
2022/06/16 14:25:31;;;;;;;;;;;;;;;;;;5018149;28;19944;-27
2022/06/16 14:27:57;;;;;;;;;;;;;;;;;;5018103;28;19914;-27
2022/06/16 14:30:24;;;;;;;;;;;;;;;;;;5018119;28;19967;-27
2022/06/16 14:32:50;;;;;;;;;;;;;;;;;;5017962;28;20406;-26
2022/06/16 14:35:16;;;;;;;;;;;;;;;;;;5018081;28;19910;-26
2022/06/16 14:37:42;;;;;;;;;;;;;;;;;;5018019;28;19914;-26
2022/06/16 14:40:08;;;;;;;;;;;;;;;;;;5018003;28;19916;-26
2022/06/16 14:42:34;;;;;;;;;;;;;;;;;;5017746;28;19914;-26
2022/06/16 14:45:01;;;;;;;;;;;;;;;;;;5018033;28;20007;-26
2022/06/16 14:47:28;;;;;;;;;;;;;;;;;;5018361;28;20261;-26
2022/06/16 14:49:54;;;;;;;;;;;;;;;;;;5017497;28;19968;-26
2022/06/16 14:52:20;;;;;;;;;;;;;;;;;;5017385;28;19913;-26
2022/06/16 14:54:46;;;;;;;;;;;;;;;;;;5017647;28;19940;-26
2022/06/16 14:57:12;;;;;;;;;;;;;;;;;;5017285;28;20356;-26
2022/06/16 14:59:38;;;;;;;;;;;;;;;;;;5017593;28;20295;-26
2022/06/16 15:02:04;;;;;;;;;;;;;;;;;;5017295;28;19913;-26
2022/06/16 15:04:30;;;;;;;;;;;;;;;;;;5017213;28;20345;-26
2022/06/16 15:06:57;;;;;;;;;;;;;;;;;;5017418;28;20375;-26
2022/06/16 15:09:23;;;;;;;;;;;;;;;;;;5017325;28;19914;-26
2022/06/16 15:11:49;;;;;;;;;;;;;;;;;;5017685;28;19923;-26
2022/06/16 15:14:15;;;;;;;;;;;;;;;;;;5017075;28;20000;-26
2022/06/16 15:19:26;;;;;;;;;;;;;;;;;;5016292;28;20400;-26
2022/06/16 15:21:52;;;;;;;;;;;;;;;;;;5017481;28;19922;-26
2022/06/16 15:24:18;;;;;;;;;;;;;;;;;;5017617;28;20420;-26
2022/06/16 15:26:44;;;;;;;;;;;;;;;;;;5017082;28;19920;-26
2022/06/16 15:29:11;;;;;;;;;;;;;;;;;;5017122;28;19910;-26
2022/06/16 15:31:38;;;;;;;;;;;;;;;;;;5017122;28;19913;-26
2022/06/16 15:36:48;;;;;;;;;;;;;;;;;;5017343;28;20344;-26
2022/06/16 15:39:14;;;;;;;;;;;;;;;;;;5016719;28;19910;-26
2022/06/16 15:41:40;;;;;;;;;;;;;;;;;;5016764;28;19936;-26
2022/06/16 15:44:06;;;;;;;;;;;;;;;;;;5017272;28;20329;-26
2022/06/16 15:46:32;;;;;;;;;;;;;;;;;;5017041;28;19925;-26
2022/06/16 15:48:58;;;;;;;;;;;;;;;;;;5016684;28;19913;-26
2022/06/16 15:51:24;;;;;;;;;;;;;;;;;;5016718;28;19917;-26
2022/06/16 15:53:51;;;;;;;;;;;;;;;;;;5016805;28;20345;-26
2022/06/16 15:56:16;;;;;;;;;;;;;;;;;;5016473;28;19949;-26
2022/06/16 15:58:42;;;;;;;;;;;;;;;;;;5016496;28;19944;-26
2022/06/16 16:01:10;;;;;;;;;;;;;;;;;;5016397;28;19913;-26
2022/06/16 16:03:36;;;;;;;;;;;;;;;;;;5016536;28;19921;-26
2022/06/16 16:06:02;;;;;;;;;;;;;;;;;;5016321;28;19917;-26
2022/06/16 16:08:28;;;;;;;;;;;;;;;;;;5016294;28;19909;-26
2022/06/16 16:10:54;;;;;;;;;;;;;;;;;;5016860;28;19953;-26
2022/06/16 16:13:20;;;;;;;;;;;;;;;;;;5016494;28;20065;-26
2022/06/16 16:15:46;;;;;;;;;;;;;;;;;;5016500;28;20257;-26
2022/06/16 16:18:12;;;;;;;;;;;;;;;;;;5016641;28;19924;-26
2022/06/16 16:20:38;;;;;;;;;;;;;;;;;;5016497;28;19909;-26
2022/06/16 16:23:05;;;;;;;;;;;;;;;;;;5015774;28;19913;-26
2022/06/16 16:25:32;;;;;;;;;;;;;;;;;;5016157;28;19944;-26
2022/06/16 16:27:57;;;;;;;;;;;;;;;;;;5016545;28;19923;-26
2022/06/16 16:30:23;;;;;;;;;;;;;;;;;;5016357;28;19995;-26
2022/06/16 16:32:49;;;;;;;;;;;;;;;;;;5015988;28;20367;-26
2022/06/16 16:35:15;;;;;;;;;;;;;;;;;;5015994;28;20004;-26
2022/06/16 16:37:41;;;;;;;;;;;;;;;;;;5016773;28;19921;-26
2022/06/16 16:40:07;;;;;;;;;;;;;;;;;;5015944;28;20364;-26
2022/06/16 16:45:18;;;;;;;;;;;;;;;;;;5015979;28;19929;-26
2022/06/16 16:47:44;;;;;;;;;;;;;;;;;;5015702;28;19924;-26
2022/06/16 16:50:10;;;;;;;;;;;;;;;;;;5015675;28;20252;-26
2022/06/16 16:52:36;;;;;;;;;;;;;;;;;;5015491;28;20264;-26
2022/06/16 16:55:02;;;;;;;;;;;;;;;;;;5015496;28;19966;-26
2022/06/16 16:57:28;;;;;;;;;;;;;;;;;;5015517;28;20348;-27
2022/06/16 16:59:54;;;;;;;;;;;;;;;;;;5015517;28;19913;-27
2022/06/16 17:02:21;;;;;;;;;;;;;;;;;;5015344;28;20077;-27
2022/06/16 17:04:47;;;;;;;;;;;;;;;;;;5015496;28;19948;-26
2022/06/16 17:07:13;;;;;;;;;;;;;;;;;;5015776;28;19999;-27
2022/06/16 17:09:39;;;;;;;;;;;;;;;;;;5015491;28;19913;-27